Time,TemperatureF,DewpointF,PressureIn,WindDirection,WindDirectionDegrees,WindSpeedMPH,WindSpeedGustMPH,Humidity,HourlyPrecipIn,Conditions,Clouds,dailyrainin,SoftwareType,DateUTC
2013-06-07 00:08:00,60.0,56.0,30.00,North,355,0.0,0.0,86,0.01,,,0.00,weatherlink.com 1.10,2013-06-07 04:08:00,
2013-06-07 00:23:00,59.6,56.0,29.99,North,355,0.0,0.0,88,0.02,,,0.01,weatherlink.com 1.10,2013-06-07 04:23:00,
2013-06-07 00:38:00,59.2,56.0,29.99,North,355,0.0,0.0,89,0.03,,,0.02,weatherlink.com 1.10,2013-06-07 04:38:00,
2013-06-07 00:53:00,58.9,56.0,29.99,North,355,0.0,0.0,90,0.03,,,0.02,weatherlink.com 1.10,2013-06-07 04:53:00,
2013-06-07 01:08:00,58.7,56.0,29.98,North,355,0.0,0.0,91,0.02,,,0.02,weatherlink.com 1.10,2013-06-07 05:08:00,
2013-06-07 01:23:00,58.6,56.0,29.98,North,355,0.0,0.0,91,0.01,,,0.02,weatherlink.com 1.10,2013-06-07 05:23:00,
2013-06-07 01:38:00,58.4,56.0,29.98,North,355,0.0,1.0,92,0.00,,,0.02,weatherlink.com 1.10,2013-06-07 05:38:00,
2013-06-07 01:53:00,58.2,56.0,29.98,North,355,0.0,0.0,92,0.00,,,0.02,weatherlink.com 1.10,2013-06-07 05:53:00,
2013-06-07 02:08:00,58.1,56.0,29.98,North,355,0.0,0.0,92,0.00,,,0.02,weatherlink.com 1.10,2013-06-07 06:08:00,
2013-06-07 02:23:00,58.0,56.0,29.97,North,355,0.0,1.0,92,0.00,,,0.02,weatherlink.com 1.10,2013-06-07 06:23:00,
2013-06-07 02:53:00,57.9,56.0,29.95,NNW,335,2.0,3.0,92,0.00,,,0.02,weatherlink.com 1.10,2013-06-07 06:53:00,
2013-06-07 03:08:00,57.9,55.0,29.93,North,360,2.0,7.0,91,0.00,,,0.02,weatherlink.com 1.10,2013-06-07 07:08:00,
2013-06-07 03:23:00,57.8,55.0,29.93,North,355,2.0,6.0,91,0.00,,,0.02,weatherlink.com 1.10,2013-06-07 07:23:00,
2013-06-07 03:38:00,57.5,55.0,29.93,North,11,1.0,3.0,92,0.00,,,0.02,weatherlink.com 1.10,2013-06-07 07:38:00,
2013-06-07 03:53:00,57.4,55.0,29.93,NW,320,2.0,7.0,92,0.00,,,0.02,weatherlink.com 1.10,2013-06-07 07:53:00,
2013-06-07 04:09:00,57.5,55.0,29.93,NNE,30,2.0,4.0,91,0.00,,,0.02,weatherlink.com 1.10,2013-06-07 08:09:00,
2013-06-07 04:24:00,57.4,55.0,29.94,NNE,26,0.0,2.0,91,0.00,,,0.02,weatherlink.com 1.10,2013-06-07 08:24:00,
2013-06-07 04:39:00,57.3,55.0,29.94,North,360,0.0,2.0,91,0.00,,,0.02,weatherlink.com 1.10,2013-06-07 08:39:00,
2013-06-07 04:54:00,57.1,55.0,29.95,North,355,0.0,1.0,91,0.00,,,0.02,weatherlink.com 1.10,2013-06-07 08:54:00,
2013-06-07 05:09:00,57.1,55.0,29.94,North,355,0.0,1.0,92,0.00,,,0.02,weatherlink.com 1.10,2013-06-07 09:09:00,
2013-06-07 05:24:00,57.1,55.0,29.94,North,355,0.0,2.0,91,0.00,,,0.02,weatherlink.com 1.10,2013-06-07 09:24:00,
2013-06-07 05:39:00,57.2,55.0,29.94,North,360,2.0,3.0,91,0.00,,,0.02,weatherlink.com 1.10,2013-06-07 09:39:00,
2013-06-07 05:54:00,57.2,55.0,29.95,North,5,0.0,2.0,91,0.00,,,0.02,weatherlink.com 1.10,2013-06-07 09:54:00,
2013-06-07 06:09:00,57.1,54.0,29.95,North,5,0.0,1.0,90,0.00,,,0.02,weatherlink.com 1.10,2013-06-07 10:09:00,
2013-06-07 06:24:00,57.0,54.0,29.95,NNE,25,0.0,3.0,89,0.00,,,0.02,weatherlink.com 1.10,2013-06-07 10:24:00,
2013-06-07 06:39:00,57.0,54.0,29.95,NNE,25,0.0,2.0,89,0.00,,,0.02,weatherlink.com 1.10,2013-06-07 10:39:00,
2013-06-07 06:54:00,56.9,53.0,29.95,NNE,25,2.0,2.0,88,0.01,,,0.03,weatherlink.com 1.10,2013-06-07 10:54:00,
2013-06-07 07:09:00,56.9,54.0,29.95,NNW,345,2.0,3.0,90,0.01,,,0.03,weatherlink.com 1.10,2013-06-07 11:09:00,
2013-06-07 07:24:00,56.8,53.0,29.95,North,10,1.0,4.0,87,0.01,,,0.03,weatherlink.com 1.10,2013-06-07 11:24:00,
2013-06-07 07:39:00,56.7,54.0,29.95,NNE,18,0.0,3.0,89,0.01,,,0.03,weatherlink.com 1.10,2013-06-07 11:39:00,
2013-06-07 07:54:00,56.8,54.0,29.96,North,355,1.0,3.0,89,0.00,,,0.03,weatherlink.com 1.10,2013-06-07 11:54:00,
2013-06-07 08:09:00,56.9,53.0,29.95,NNE,22,1.0,4.0,88,0.00,,,0.03,weatherlink.com 1.10,2013-06-07 12:09:00,
2013-06-07 08:24:00,57.0,54.0,29.95,NE,36,1.0,4.0,89,0.00,,,0.03,weatherlink.com 1.10,2013-06-07 12:24:00,
2013-06-07 08:39:00,57.1,54.0,29.95,North,10,0.0,4.0,89,0.00,,,0.03,weatherlink.com 1.10,2013-06-07 12:39:00,
2013-06-07 08:54:00,57.1,54.0,29.95,NNE,12,1.0,3.0,89,0.00,,,0.03,weatherlink.com 1.10,2013-06-07 12:54:00,
2013-06-07 09:09:00,57.1,54.0,29.95,NNE,14,0.0,3.0,89,0.00,,,0.03,weatherlink.com 1.10,2013-06-07 13:09:00,
2013-06-07 09:24:00,57.1,54.0,29.95,NNW,331,3.0,4.0,89,0.00,,,0.03,weatherlink.com 1.10,2013-06-07 13:24:00,
2013-06-07 09:39:00,57.0,54.0,29.95,NE,49,1.0,5.0,90,0.00,,,0.03,weatherlink.com 1.10,2013-06-07 13:39:00,
2013-06-07 09:54:00,56.6,54.0,29.95,NNE,15,3.0,6.0,91,0.00,,,0.03,weatherlink.com 1.10,2013-06-07 13:54:00,
2013-06-07 10:09:00,56.3,54.0,29.95,North,360,4.0,7.0,90,0.00,,,0.03,weatherlink.com 1.10,2013-06-07 14:09:00,
2013-06-07 10:24:00,55.9,53.0,29.95,NE,38,2.0,8.0,90,0.00,,,0.03,weatherlink.com 1.10,2013-06-07 14:24:00,
2013-06-07 10:39:00,55.6,53.0,29.95,NE,49,3.0,6.0,92,0.00,,,0.03,weatherlink.com 1.10,2013-06-07 14:39:00,
2013-06-07 10:54:00,55.8,54.0,29.96,NE,54,4.0,7.0,92,0.00,,,0.03,weatherlink.com 1.10,2013-06-07 14:54:00,
2013-06-07 11:09:00,55.6,53.0,29.96,North,355,3.0,8.0,92,0.00,,,0.03,weatherlink.com 1.10,2013-06-07 15:09:00,
2013-06-07 11:24:00,55.5,53.0,29.96,NE,36,4.0,9.0,92,0.00,,,0.03,weatherlink.com 1.10,2013-06-07 15:24:00,
2013-06-07 11:39:00,55.4,53.0,29.95,North,355,5.0,8.0,92,0.00,,,0.03,weatherlink.com 1.10,2013-06-07 15:39:00,
2013-06-07 11:54:00,55.5,53.0,29.95,North,5,5.0,8.0,92,0.00,,,0.03,weatherlink.com 1.10,2013-06-07 15:54:00,
2013-06-07 12:09:00,55.6,54.0,29.95,NE,56,4.0,9.0,93,0.00,,,0.03,weatherlink.com 1.10,2013-06-07 16:09:00,
2013-06-07 12:24:00,55.7,54.0,29.95,North,360,4.0,6.0,93,0.00,,,0.03,weatherlink.com 1.10,2013-06-07 16:24:00,
2013-06-07 12:39:00,56.0,54.0,29.95,North,9,2.0,6.0,93,0.00,,,0.03,weatherlink.com 1.10,2013-06-07 16:39:00,
2013-06-07 12:54:00,56.4,55.0,29.94,NNW,342,5.0,5.0,94,0.00,,,0.03,weatherlink.com 1.10,2013-06-07 16:54:00,
2013-06-07 13:09:00,56.7,55.0,29.94,NNE,25,2.0,4.0,94,0.01,,,0.04,weatherlink.com 1.10,2013-06-07 17:09:00,
2013-06-07 13:24:00,56.9,55.0,29.93,NNE,24,1.0,4.0,94,0.01,,,0.04,weatherlink.com 1.10,2013-06-07 17:24:00,
2013-06-07 13:39:00,57.3,56.0,29.93,NNE,25,2.0,5.0,94,0.01,,,0.04,weatherlink.com 1.10,2013-06-07 17:39:00,
2013-06-07 13:54:00,57.6,56.0,29.93,NNE,28,1.0,5.0,94,0.01,,,0.04,weatherlink.com 1.10,2013-06-07 17:54:00,
2013-06-07 14:09:00,57.6,56.0,29.93,NE,49,2.0,6.0,93,0.01,,,0.05,weatherlink.com 1.10,2013-06-07 18:09:00,
2013-06-07 14:24:00,57.6,56.0,29.93,North,360,3.0,6.0,94,0.01,,,0.05,weatherlink.com 1.10,2013-06-07 18:24:00,
2013-06-07 14:39:00,57.5,56.0,29.93,NNE,32,4.0,11.0,93,0.02,,,0.06,weatherlink.com 1.10,2013-06-07 18:39:00,
2013-06-07 14:54:00,57.5,56.0,29.93,NE,44,2.0,5.0,94,0.02,,,0.06,weatherlink.com 1.10,2013-06-07 18:54:00,
2013-06-07 15:09:00,57.5,56.0,29.92,NNE,26,3.0,4.0,94,0.02,,,0.07,weatherlink.com 1.10,2013-06-07 19:09:00,
2013-06-07 15:39:00,57.3,56.0,29.91,ENE,68,2.0,5.0,94,0.01,,,0.07,weatherlink.com 1.10,2013-06-07 19:39:00,
2013-06-07 15:54:00,57.2,55.0,29.90,NE,42,2.0,7.0,93,0.01,,,0.07,weatherlink.com 1.10,2013-06-07 19:54:00,
2013-06-07 16:09:00,57.0,55.0,29.89,North,5,6.0,8.0,93,0.00,,,0.07,weatherlink.com 1.10,2013-06-07 20:09:00,
2013-06-07 16:24:00,57.0,55.0,29.89,NE,53,2.0,7.0,93,0.00,,,0.07,weatherlink.com 1.10,2013-06-07 20:24:00,
2013-06-07 16:39:00,57.1,55.0,29.89,NNE,17,6.0,10.0,93,0.01,,,0.08,weatherlink.com 1.10,2013-06-07 20:39:00,
2013-06-07 16:54:00,56.7,55.0,29.88,North,355,5.0,10.0,93,0.01,,,0.08,weatherlink.com 1.10,2013-06-07 20:54:00,
2013-06-07 17:09:00,56.2,54.0,29.88,NNW,348,5.0,10.0,93,0.03,,,0.10,weatherlink.com 1.10,2013-06-07 21:09:00,
2013-06-07 17:24:00,55.8,54.0,29.88,NNE,28,5.0,8.0,93,0.08,,,0.15,weatherlink.com 1.10,2013-06-07 21:24:00,
2013-06-07 17:40:00,55.6,54.0,29.88,NNW,333,4.0,8.0,94,0.09,,,0.17,weatherlink.com 1.10,2013-06-07 21:40:00,
2013-06-07 17:55:00,55.5,54.0,29.88,NE,38,3.0,4.0,94,0.13,,,0.21,weatherlink.com 1.10,2013-06-07 21:55:00,
2013-06-07 21:25:00,52.8,52.0,29.82,NE,40,1.0,5.0,95,0.01,,,0.26,weatherlink.com 1.10,2013-06-08 01:25:00,
2013-06-07 21:55:00,52.9,52.0,29.81,North,10,4.0,9.0,95,0.03,,,0.29,weatherlink.com 1.10,2013-06-08 01:55:00,
2013-06-07 22:10:00,53.0,52.0,29.80,NNE,29,3.0,6.0,95,0.07,,,0.33,weatherlink.com 1.10,2013-06-08 02:10:00,
2013-06-07 22:25:00,53.1,52.0,29.79,North,360,4.0,7.0,95,0.12,,,0.38,weatherlink.com 1.10,2013-06-08 02:25:00,
2013-06-07 22:40:00,53.3,52.0,29.78,North,5,3.0,9.0,95,0.14,,,0.41,weatherlink.com 1.10,2013-06-08 02:40:00,
2013-06-07 23:26:00,53.5,52.0,29.77,North,5,1.0,8.0,96,0.13,,,0.51,weatherlink.com 1.10,2013-06-08 03:26:00,
2013-06-07 23:41:00,53.5,52.0,29.75,North,360,2.0,7.0,96,0.11,,,0.53,weatherlink.com 1.10,2013-06-08 03:41:00,
2013-06-07 23:56:00,53.5,52.0,29.74,NNE,18,0.0,7.0,96,0.10,,,0.55,weatherlink.com 1.10,2013-06-08 03:56:00,